sensor_id;sensor_type;location;lat;lon;timestamp;temperature;humidity
13264;DHT22;6700;51.988;7.646;2022-09-13T00:02:15;16.00;99.90
13264;DHT22;6700;51.988;7.646;2022-09-13T00:04:43;16.10;99.90
13264;DHT22;6700;51.988;7.646;2022-09-13T00:07:09;16.10;99.90
13264;DHT22;6700;51.988;7.646;2022-09-13T00:09:37;16.20;99.90
13264;DHT22;6700;51.988;7.646;2022-09-13T00:12:04;16.10;99.90
13264;DHT22;6700;51.988;7.646;2022-09-13T00:14:34;16.20;99.90
13264;DHT22;6700;51.988;7.646;2022-09-13T00:17:01;16.10;99.90
13264;DHT22;6700;51.988;7.646;2022-09-13T00:19:29;16.30;99.90
13264;DHT22;6700;51.988;7.646;2022-09-13T00:21:55;16.20;99.90
13264;DHT22;6700;51.988;7.646;2022-09-13T00:24:22;16.20;99.90
13264;DHT22;6700;51.988;7.646;2022-09-13T00:26:49;16.20;99.90
13264;DHT22;6700;51.988;7.646;2022-09-13T00:29:16;16.30;99.90
13264;DHT22;6700;51.988;7.646;2022-09-13T00:31:44;16.30;99.90
13264;DHT22;6700;51.988;7.646;2022-09-13T00:34:15;16.40;99.90
13264;DHT22;6700;51.988;7.646;2022-09-13T00:36:42;16.40;99.90
13264;DHT22;6700;51.988;7.646;2022-09-13T00:39:09;16.40;99.90
13264;DHT22;6700;51.988;7.646;2022-09-13T00:41:38;16.40;99.90
13264;DHT22;6700;51.988;7.646;2022-09-13T00:47:13;16.40;99.90
13264;DHT22;6700;51.988;7.646;2022-09-13T00:49:42;16.40;99.90
13264;DHT22;6700;51.988;7.646;2022-09-13T00:52:14;16.40;99.90
13264;DHT22;6700;51.988;7.646;2022-09-13T00:54:47;16.50;99.90
13264;DHT22;6700;51.988;7.646;2022-09-13T00:57:18;16.50;99.90
13264;DHT22;6700;51.988;7.646;2022-09-13T00:59:55;16.60;99.90
13264;DHT22;6700;51.988;7.646;2022-09-13T01:02:22;16.60;99.90
13264;DHT22;6700;51.988;7.646;2022-09-13T01:04:49;16.50;99.90
13264;DHT22;6700;51.988;7.646;2022-09-13T01:07:16;16.60;99.90
13264;DHT22;6700;51.988;7.646;2022-09-13T01:09:46;16.50;99.90
13264;DHT22;6700;51.988;7.646;2022-09-13T01:14:47;16.60;99.90
13264;DHT22;6700;51.988;7.646;2022-09-13T01:17:15;16.60;99.90
13264;DHT22;6700;51.988;7.646;2022-09-13T01:19:42;16.70;99.90
13264;DHT22;6700;51.988;7.646;2022-09-13T01:25:02;16.70;99.90
13264;DHT22;6700;51.988;7.646;2022-09-13T01:31:07;16.80;99.90
13264;DHT22;6700;51.988;7.646;2022-09-13T01:33:55;16.80;99.90
13264;DHT22;6700;51.988;7.646;2022-09-13T01:39:42;17.00;99.90
13264;DHT22;6700;51.988;7.646;2022-09-13T01:45:12;17.00;99.90
13264;DHT22;6700;51.988;7.646;2022-09-13T01:50:56;17.00;99.90
13264;DHT22;6700;51.988;7.646;2022-09-13T02:02:06;16.70;99.90
13264;DHT22;6700;51.988;7.646;2022-09-13T02:04:38;16.80;99.90
13264;DHT22;6700;51.988;7.646;2022-09-13T02:07:16;16.80;99.90
13264;DHT22;6700;51.988;7.646;2022-09-13T02:09:50;16.80;99.90
13264;DHT22;6700;51.988;7.646;2022-09-13T02:12:25;16.80;99.90
13264;DHT22;6700;51.988;7.646;2022-09-13T02:15:24;16.80;99.90
13264;DHT22;6700;51.988;7.646;2022-09-13T02:18:04;16.80;99.90
13264;DHT22;6700;51.988;7.646;2022-09-13T02:20:40;16.70;99.90
13264;DHT22;6700;51.988;7.646;2022-09-13T02:23:16;16.80;99.90
13264;DHT22;6700;51.988;7.646;2022-09-13T02:25:47;16.80;99.90
13264;DHT22;6700;51.988;7.646;2022-09-13T02:28:19;16.70;99.90
13264;DHT22;6700;51.988;7.646;2022-09-13T02:30:51;16.90;99.90
13264;DHT22;6700;51.988;7.646;2022-09-13T02:33:43;16.80;99.90
13264;DHT22;6700;51.988;7.646;2022-09-13T02:36:20;16.80;99.90
13264;DHT22;6700;51.988;7.646;2022-09-13T02:38:52;16.80;99.90
13264;DHT22;6700;51.988;7.646;2022-09-13T02:41:32;16.80;99.90
13264;DHT22;6700;51.988;7.646;2022-09-13T02:47:03;16.70;99.90
13264;DHT22;6700;51.988;7.646;2022-09-13T02:49:48;16.70;99.90
13264;DHT22;6700;51.988;7.646;2022-09-13T03:00:38;16.60;99.90
13264;DHT22;6700;51.988;7.646;2022-09-13T03:03:08;16.70;99.90
13264;DHT22;6700;51.988;7.646;2022-09-13T03:05:37;16.60;99.90
13264;DHT22;6700;51.988;7.646;2022-09-13T03:08:05;16.70;99.90
13264;DHT22;6700;51.988;7.646;2022-09-13T03:11:05;16.70;99.90
13264;DHT22;6700;51.988;7.646;2022-09-13T03:17:12;16.70;99.90
13264;DHT22;6700;51.988;7.646;2022-09-13T03:23:07;16.60;99.90
13264;DHT22;6700;51.988;7.646;2022-09-13T03:26:16;16.70;99.90
13264;DHT22;6700;51.988;7.646;2022-09-13T03:35:05;16.60;99.90
13264;DHT22;6700;51.988;7.646;2022-09-13T03:38:06;16.70;99.90
13264;DHT22;6700;51.988;7.646;2022-09-13T03:40:42;16.70;99.90
13264;DHT22;6700;51.988;7.646;2022-09-13T03:46:06;16.80;99.90
13264;DHT22;6700;51.988;7.646;2022-09-13T03:48:36;16.70;99.90
13264;DHT22;6700;51.988;7.646;2022-09-13T03:51:05;16.80;99.90
13264;DHT22;6700;51.988;7.646;2022-09-13T03:53:35;16.70;99.90
13264;DHT22;6700;51.988;7.646;2022-09-13T03:56:19;16.80;99.90
13264;DHT22;6700;51.988;7.646;2022-09-13T03:58:46;16.70;99.90
13264;DHT22;6700;51.988;7.646;2022-09-13T04:01:19;16.70;99.90
13264;DHT22;6700;51.988;7.646;2022-09-13T04:03:46;16.70;99.90
13264;DHT22;6700;51.988;7.646;2022-09-13T04:06:13;16.80;99.90
13264;DHT22;6700;51.988;7.646;2022-09-13T04:08:40;16.80;99.90
13264;DHT22;6700;51.988;7.646;2022-09-13T04:11:08;17.00;99.90
13264;DHT22;6700;51.988;7.646;2022-09-13T04:13:36;17.10;99.90
13264;DHT22;6700;51.988;7.646;2022-09-13T04:16:04;16.90;99.90
13264;DHT22;6700;51.988;7.646;2022-09-13T04:18:32;16.90;99.90
13264;DHT22;6700;51.988;7.646;2022-09-13T04:21:00;17.00;99.90
13264;DHT22;6700;51.988;7.646;2022-09-13T04:23:28;17.00;99.90
13264;DHT22;6700;51.988;7.646;2022-09-13T04:26:03;16.90;99.90
13264;DHT22;6700;51.988;7.646;2022-09-13T04:28:30;16.70;99.90
13264;DHT22;6700;51.988;7.646;2022-09-13T04:30:57;16.80;99.90
13264;DHT22;6700;51.988;7.646;2022-09-13T04:33:23;16.90;99.90
13264;DHT22;6700;51.988;7.646;2022-09-13T04:35:57;16.90;99.90
13264;DHT22;6700;51.988;7.646;2022-09-13T04:38:25;16.90;99.90
13264;DHT22;6700;51.988;7.646;2022-09-13T04:40:54;16.80;99.90
13264;DHT22;6700;51.988;7.646;2022-09-13T04:43:22;16.80;99.90
13264;DHT22;6700;51.988;7.646;2022-09-13T04:45:49;16.80;99.90
13264;DHT22;6700;51.988;7.646;2022-09-13T04:48:16;16.80;99.90
13264;DHT22;6700;51.988;7.646;2022-09-13T04:50:43;16.70;99.90
13264;DHT22;6700;51.988;7.646;2022-09-13T04:53:10;16.70;99.90
13264;DHT22;6700;51.988;7.646;2022-09-13T04:55:37;16.70;99.90
13264;DHT22;6700;51.988;7.646;2022-09-13T04:58:04;16.60;99.90
13264;DHT22;6700;51.988;7.646;2022-09-13T05:00:32;16.70;99.90
13264;DHT22;6700;51.988;7.646;2022-09-13T05:03:00;16.60;99.90
13264;DHT22;6700;51.988;7.646;2022-09-13T05:05:28;16.60;99.90
13264;DHT22;6700;51.988;7.646;2022-09-13T05:07:56;16.50;99.90
13264;DHT22;6700;51.988;7.646;2022-09-13T05:10:23;16.60;99.90
13264;DHT22;6700;51.988;7.646;2022-09-13T05:12:52;16.70;99.90
13264;DHT22;6700;51.988;7.646;2022-09-13T05:15:19;16.70;99.90
13264;DHT22;6700;51.988;7.646;2022-09-13T05:17:47;16.60;99.90
13264;DHT22;6700;51.988;7.646;2022-09-13T05:20:15;16.60;99.90
13264;DHT22;6700;51.988;7.646;2022-09-13T05:22:42;16.60;99.90
13264;DHT22;6700;51.988;7.646;2022-09-13T05:25:09;16.70;99.90
13264;DHT22;6700;51.988;7.646;2022-09-13T05:27:36;16.60;99.90
13264;DHT22;6700;51.988;7.646;2022-09-13T05:30:04;16.50;99.90
13264;DHT22;6700;51.988;7.646;2022-09-13T05:32:33;16.60;99.90
13264;DHT22;6700;51.988;7.646;2022-09-13T05:35:00;16.60;99.90
13264;DHT22;6700;51.988;7.646;2022-09-13T05:37:27;16.50;99.90
13264;DHT22;6700;51.988;7.646;2022-09-13T05:39:54;16.60;99.90
13264;DHT22;6700;51.988;7.646;2022-09-13T05:42:38;16.60;99.90
13264;DHT22;6700;51.988;7.646;2022-09-13T05:45:05;16.60;99.90
13264;DHT22;6700;51.988;7.646;2022-09-13T05:47:32;16.60;99.90
13264;DHT22;6700;51.988;7.646;2022-09-13T05:49:59;16.60;99.90
13264;DHT22;6700;51.988;7.646;2022-09-13T05:52:36;16.70;99.90
13264;DHT22;6700;51.988;7.646;2022-09-13T05:55:03;16.80;99.90
13264;DHT22;6700;51.988;7.646;2022-09-13T05:57:30;16.80;99.90
13264;DHT22;6700;51.988;7.646;2022-09-13T05:59:57;16.80;99.90
13264;DHT22;6700;51.988;7.646;2022-09-13T06:02:24;16.80;99.90
13264;DHT22;6700;51.988;7.646;2022-09-13T06:04:51;16.90;99.90
13264;DHT22;6700;51.988;7.646;2022-09-13T06:07:18;17.00;99.90
13264;DHT22;6700;51.988;7.646;2022-09-13T06:09:44;16.90;99.90
13264;DHT22;6700;51.988;7.646;2022-09-13T06:12:11;17.10;99.90
13264;DHT22;6700;51.988;7.646;2022-09-13T06:14:38;17.20;99.90
13264;DHT22;6700;51.988;7.646;2022-09-13T06:17:05;17.10;99.90
13264;DHT22;6700;51.988;7.646;2022-09-13T06:19:31;17.20;99.90
13264;DHT22;6700;51.988;7.646;2022-09-13T06:21:58;17.20;99.90
13264;DHT22;6700;51.988;7.646;2022-09-13T06:24:25;17.50;99.90
13264;DHT22;6700;51.988;7.646;2022-09-13T06:26:52;17.40;99.90
13264;DHT22;6700;51.988;7.646;2022-09-13T06:29:19;17.50;99.90
13264;DHT22;6700;51.988;7.646;2022-09-13T06:31:46;17.50;99.90
13264;DHT22;6700;51.988;7.646;2022-09-13T06:34:13;17.60;99.90
13264;DHT22;6700;51.988;7.646;2022-09-13T06:36:41;17.60;99.90
13264;DHT22;6700;51.988;7.646;2022-09-13T06:39:08;17.60;99.90
13264;DHT22;6700;51.988;7.646;2022-09-13T06:41:35;17.60;99.90
13264;DHT22;6700;51.988;7.646;2022-09-13T06:44:03;17.60;99.90
13264;DHT22;6700;51.988;7.646;2022-09-13T06:46:34;17.70;99.90
13264;DHT22;6700;51.988;7.646;2022-09-13T06:49:03;17.70;99.90
13264;DHT22;6700;51.988;7.646;2022-09-13T06:51:31;17.80;99.90
13264;DHT22;6700;51.988;7.646;2022-09-13T06:53:59;17.90;99.90
13264;DHT22;6700;51.988;7.646;2022-09-13T06:56:31;17.80;99.90
13264;DHT22;6700;51.988;7.646;2022-09-13T06:59:05;17.90;99.90
13264;DHT22;6700;51.988;7.646;2022-09-13T07:01:40;18.00;99.90
13264;DHT22;6700;51.988;7.646;2022-09-13T07:04:14;18.00;99.90
13264;DHT22;6700;51.988;7.646;2022-09-13T07:06:43;18.20;99.90
13264;DHT22;6700;51.988;7.646;2022-09-13T07:09:16;18.20;99.90
13264;DHT22;6700;51.988;7.646;2022-09-13T07:11:44;18.20;99.90
13264;DHT22;6700;51.988;7.646;2022-09-13T07:14:18;18.20;99.90
13264;DHT22;6700;51.988;7.646;2022-09-13T07:16:45;18.30;99.90
13264;DHT22;6700;51.988;7.646;2022-09-13T07:19:15;18.30;99.90
13264;DHT22;6700;51.988;7.646;2022-09-13T07:21:42;18.30;99.90
13264;DHT22;6700;51.988;7.646;2022-09-13T07:24:09;18.40;99.90
13264;DHT22;6700;51.988;7.646;2022-09-13T07:26:37;18.40;99.90
13264;DHT22;6700;51.988;7.646;2022-09-13T07:29:06;18.50;99.90
13264;DHT22;6700;51.988;7.646;2022-09-13T07:31:38;18.70;99.90
13264;DHT22;6700;51.988;7.646;2022-09-13T07:34:09;18.70;99.90
13264;DHT22;6700;51.988;7.646;2022-09-13T07:36:37;18.80;99.90
13264;DHT22;6700;51.988;7.646;2022-09-13T07:39:05;18.80;99.90
13264;DHT22;6700;51.988;7.646;2022-09-13T07:41:33;18.90;99.90
13264;DHT22;6700;51.988;7.646;2022-09-13T07:44:01;18.90;99.90
13264;DHT22;6700;51.988;7.646;2022-09-13T07:46:30;19.00;99.90
13264;DHT22;6700;51.988;7.646;2022-09-13T07:49:00;19.20;99.90
13264;DHT22;6700;51.988;7.646;2022-09-13T07:51:29;19.20;99.90
13264;DHT22;6700;51.988;7.646;2022-09-13T07:53:59;19.10;99.90
13264;DHT22;6700;51.988;7.646;2022-09-13T07:56:34;19.20;99.90
13264;DHT22;6700;51.988;7.646;2022-09-13T07:59:04;19.30;99.90
13264;DHT22;6700;51.988;7.646;2022-09-13T08:01:36;19.10;99.90
13264;DHT22;6700;51.988;7.646;2022-09-13T08:04:08;19.20;99.90
13264;DHT22;6700;51.988;7.646;2022-09-13T08:06:37;19.20;99.90
13264;DHT22;6700;51.988;7.646;2022-09-13T08:09:05;19.20;99.90
13264;DHT22;6700;51.988;7.646;2022-09-13T08:11:36;19.30;99.90
13264;DHT22;6700;51.988;7.646;2022-09-13T08:14:04;19.40;99.90
13264;DHT22;6700;51.988;7.646;2022-09-13T08:16:32;19.40;99.90
13264;DHT22;6700;51.988;7.646;2022-09-13T08:19:01;19.40;99.90
13264;DHT22;6700;51.988;7.646;2022-09-13T08:21:34;19.40;99.90
13264;DHT22;6700;51.988;7.646;2022-09-13T08:24:03;19.50;99.90
13264;DHT22;6700;51.988;7.646;2022-09-13T08:26:31;19.50;99.90
13264;DHT22;6700;51.988;7.646;2022-09-13T08:29:00;19.40;99.90
13264;DHT22;6700;51.988;7.646;2022-09-13T08:31:28;19.50;99.90
13264;DHT22;6700;51.988;7.646;2022-09-13T08:33:56;19.40;99.90
13264;DHT22;6700;51.988;7.646;2022-09-13T08:36:27;19.30;99.90
13264;DHT22;6700;51.988;7.646;2022-09-13T08:38:56;19.40;99.90
13264;DHT22;6700;51.988;7.646;2022-09-13T08:44:29;19.60;99.90
13264;DHT22;6700;51.988;7.646;2022-09-13T08:49:59;19.80;99.90
13264;DHT22;6700;51.988;7.646;2022-09-13T08:52:37;19.80;99.90
13264;DHT22;6700;51.988;7.646;2022-09-13T08:55:27;19.90;99.90
13264;DHT22;6700;51.988;7.646;2022-09-13T08:58:08;20.00;99.90
13264;DHT22;6700;51.988;7.646;2022-09-13T09:00:43;20.00;99.90
13264;DHT22;6700;51.988;7.646;2022-09-13T09:03:37;20.10;99.90
13264;DHT22;6700;51.988;7.646;2022-09-13T09:06:00;20.20;99.90
13264;DHT22;6700;51.988;7.646;2022-09-13T09:08:48;20.40;99.90
13264;DHT22;6700;51.988;7.646;2022-09-13T09:11:41;20.30;99.90
13264;DHT22;6700;51.988;7.646;2022-09-13T09:14:31;20.40;99.90
13264;DHT22;6700;51.988;7.646;2022-09-13T09:17:05;20.30;99.90
13264;DHT22;6700;51.988;7.646;2022-09-13T09:19:41;20.50;99.90
13264;DHT22;6700;51.988;7.646;2022-09-13T09:22:20;20.50;99.90
13264;DHT22;6700;51.988;7.646;2022-09-13T09:24:53;20.70;99.90
13264;DHT22;6700;51.988;7.646;2022-09-13T09:27:21;20.90;99.90
13264;DHT22;6700;51.988;7.646;2022-09-13T09:29:51;21.00;99.90
13264;DHT22;6700;51.988;7.646;2022-09-13T09:37:48;21.30;99.90
13264;DHT22;6700;51.988;7.646;2022-09-13T09:40:16;21.40;99.90
13264;DHT22;6700;51.988;7.646;2022-09-13T09:42:46;21.40;99.90
13264;DHT22;6700;51.988;7.646;2022-09-13T09:45:29;21.50;99.90
13264;DHT22;6700;51.988;7.646;2022-09-13T09:48:00;21.40;99.90
13264;DHT22;6700;51.988;7.646;2022-09-13T09:50:35;21.30;99.90
13264;DHT22;6700;51.988;7.646;2022-09-13T09:53:13;21.30;99.90
13264;DHT22;6700;51.988;7.646;2022-09-13T09:55:59;21.20;99.90
13264;DHT22;6700;51.988;7.646;2022-09-13T09:58:49;21.20;99.90
13264;DHT22;6700;51.988;7.646;2022-09-13T10:01:29;21.20;99.90
13264;DHT22;6700;51.988;7.646;2022-09-13T10:06:39;21.20;99.90
13264;DHT22;6700;51.988;7.646;2022-09-13T10:17:25;21.50;99.90
13264;DHT22;6700;51.988;7.646;2022-09-13T10:22:39;21.80;99.90
13264;DHT22;6700;51.988;7.646;2022-09-13T10:25:21;21.70;99.90
13264;DHT22;6700;51.988;7.646;2022-09-13T10:27:50;21.80;99.90
13264;DHT22;6700;51.988;7.646;2022-09-13T10:33:01;21.70;99.90
13264;DHT22;6700;51.988;7.646;2022-09-13T10:35:29;21.90;99.90
13264;DHT22;6700;51.988;7.646;2022-09-13T10:37:56;21.80;99.90
13264;DHT22;6700;51.988;7.646;2022-09-13T10:40:31;21.70;99.90
13264;DHT22;6700;51.988;7.646;2022-09-13T10:43:14;21.80;99.90
13264;DHT22;6700;51.988;7.646;2022-09-13T10:45:41;21.70;99.90
13264;DHT22;6700;51.988;7.646;2022-09-13T10:48:15;21.80;99.90
13264;DHT22;6700;51.988;7.646;2022-09-13T10:51:06;21.80;99.90
13264;DHT22;6700;51.988;7.646;2022-09-13T10:53:37;21.70;99.90
13264;DHT22;6700;51.988;7.646;2022-09-13T10:56:07;21.70;99.90
13264;DHT22;6700;51.988;7.646;2022-09-13T10:58:43;21.60;99.90
13264;DHT22;6700;51.988;7.646;2022-09-13T11:03:57;21.20;99.90
13264;DHT22;6700;51.988;7.646;2022-09-13T11:06:41;21.20;99.90
13264;DHT22;6700;51.988;7.646;2022-09-13T11:09:22;21.20;99.90
13264;DHT22;6700;51.988;7.646;2022-09-13T11:15:05;21.00;99.90
13264;DHT22;6700;51.988;7.646;2022-09-13T11:18:05;20.90;99.90
13264;DHT22;6700;51.988;7.646;2022-09-13T11:21:00;20.80;99.90
13264;DHT22;6700;51.988;7.646;2022-09-13T11:26:51;20.70;99.90
13264;DHT22;6700;51.988;7.646;2022-09-13T11:32:32;20.70;99.90
13264;DHT22;6700;51.988;7.646;2022-09-13T11:35:33;20.80;99.90
13264;DHT22;6700;51.988;7.646;2022-09-13T11:40:55;20.70;99.90
13264;DHT22;6700;51.988;7.646;2022-09-13T11:48:49;20.80;99.90
13264;DHT22;6700;51.988;7.646;2022-09-13T11:51:30;20.90;99.90
13264;DHT22;6700;51.988;7.646;2022-09-13T11:56:53;20.80;99.90
13264;DHT22;6700;51.988;7.646;2022-09-13T12:05:20;21.00;99.90
13264;DHT22;6700;51.988;7.646;2022-09-13T12:07:54;20.90;99.90
13264;DHT22;6700;51.988;7.646;2022-09-13T12:10:51;20.90;99.90
13264;DHT22;6700;51.988;7.646;2022-09-13T12:13:31;21.00;99.90
13264;DHT22;6700;51.988;7.646;2022-09-13T12:16:12;20.90;99.90
13264;DHT22;6700;51.988;7.646;2022-09-13T12:18:43;20.90;99.90
13264;DHT22;6700;51.988;7.646;2022-09-13T12:21:24;20.90;99.90
13264;DHT22;6700;51.988;7.646;2022-09-13T12:24:05;21.00;99.90
13264;DHT22;6700;51.988;7.646;2022-09-13T12:26:38;21.10;99.90
13264;DHT22;6700;51.988;7.646;2022-09-13T12:29:14;21.10;99.90
13264;DHT22;6700;51.988;7.646;2022-09-13T12:31:43;21.20;99.90
13264;DHT22;6700;51.988;7.646;2022-09-13T12:34:26;21.30;99.90
13264;DHT22;6700;51.988;7.646;2022-09-13T12:37:21;21.40;99.90
13264;DHT22;6700;51.988;7.646;2022-09-13T12:55:06;22.00;99.90
13264;DHT22;6700;51.988;7.646;2022-09-13T13:03:00;22.10;99.90
13264;DHT22;6700;51.988;7.646;2022-09-13T13:05:38;22.20;99.90
13264;DHT22;6700;51.988;7.646;2022-09-13T13:11:04;22.40;99.90
13264;DHT22;6700;51.988;7.646;2022-09-13T13:13:33;22.50;99.90
13264;DHT22;6700;51.988;7.646;2022-09-13T13:16:24;22.50;99.90
13264;DHT22;6700;51.988;7.646;2022-09-13T13:18:53;22.40;99.90
13264;DHT22;6700;51.988;7.646;2022-09-13T13:29:40;22.20;99.90
13264;DHT22;6700;51.988;7.646;2022-09-13T13:32:09;22.20;99.90
13264;DHT22;6700;51.988;7.646;2022-09-13T13:34:41;22.20;99.90
13264;DHT22;6700;51.988;7.646;2022-09-13T13:39:49;22.40;99.90
13264;DHT22;6700;51.988;7.646;2022-09-13T13:42:35;22.60;99.90
13264;DHT22;6700;51.988;7.646;2022-09-13T13:45:25;22.70;99.90
13264;DHT22;6700;51.988;7.646;2022-09-13T13:48:07;22.70;99.90
13264;DHT22;6700;51.988;7.646;2022-09-13T13:53:38;22.40;99.90
13264;DHT22;6700;51.988;7.646;2022-09-13T13:56:19;22.30;99.90
13264;DHT22;6700;51.988;7.646;2022-09-13T13:59:18;22.20;99.90
13264;DHT22;6700;51.988;7.646;2022-09-13T14:01:50;22.10;99.90
13264;DHT22;6700;51.988;7.646;2022-09-13T14:04:53;22.20;99.90
13264;DHT22;6700;51.988;7.646;2022-09-13T14:10:50;22.10;99.90
13264;DHT22;6700;51.988;7.646;2022-09-13T14:16:26;22.20;99.90
13264;DHT22;6700;51.988;7.646;2022-09-13T14:24:37;22.40;99.90
13264;DHT22;6700;51.988;7.646;2022-09-13T14:27:04;22.30;99.90
13264;DHT22;6700;51.988;7.646;2022-09-13T14:29:35;22.20;99.90
13264;DHT22;6700;51.988;7.646;2022-09-13T14:32:10;22.20;99.90
13264;DHT22;6700;51.988;7.646;2022-09-13T14:34:50;22.30;99.90
13264;DHT22;6700;51.988;7.646;2022-09-13T14:37:19;22.20;99.90
13264;DHT22;6700;51.988;7.646;2022-09-13T14:40:01;22.20;99.90
13264;DHT22;6700;51.988;7.646;2022-09-13T14:42:42;22.10;99.90
13264;DHT22;6700;51.988;7.646;2022-09-13T14:45:33;22.30;99.90
13264;DHT22;6700;51.988;7.646;2022-09-13T14:48:06;22.00;99.90
13264;DHT22;6700;51.988;7.646;2022-09-13T14:50:39;21.90;99.90
13264;DHT22;6700;51.988;7.646;2022-09-13T14:53:11;22.00;99.90
13264;DHT22;6700;51.988;7.646;2022-09-13T14:55:43;21.80;99.90
13264;DHT22;6700;51.988;7.646;2022-09-13T14:58:16;21.80;99.90
13264;DHT22;6700;51.988;7.646;2022-09-13T15:00:58;21.80;99.90
13264;DHT22;6700;51.988;7.646;2022-09-13T15:03:26;21.80;99.90
13264;DHT22;6700;51.988;7.646;2022-09-13T15:05:56;21.90;99.90
13264;DHT22;6700;51.988;7.646;2022-09-13T15:08:44;22.00;99.90
13264;DHT22;6700;51.988;7.646;2022-09-13T15:11:16;21.90;99.90
13264;DHT22;6700;51.988;7.646;2022-09-13T15:16:52;21.70;99.90
13264;DHT22;6700;51.988;7.646;2022-09-13T15:19:26;21.70;99.90
13264;DHT22;6700;51.988;7.646;2022-09-13T15:25:15;21.50;99.90
13264;DHT22;6700;51.988;7.646;2022-09-13T15:27:46;21.40;99.90
13264;DHT22;6700;51.988;7.646;2022-09-13T15:30:28;21.60;99.90
13264;DHT22;6700;51.988;7.646;2022-09-13T15:41:11;21.70;99.90
13264;DHT22;6700;51.988;7.646;2022-09-13T15:43:38;21.70;99.90
13264;DHT22;6700;51.988;7.646;2022-09-13T15:46:05;21.60;99.90
13264;DHT22;6700;51.988;7.646;2022-09-13T15:48:34;21.60;99.90
13264;DHT22;6700;51.988;7.646;2022-09-13T15:51:12;21.70;99.90
13264;DHT22;6700;51.988;7.646;2022-09-13T15:53:41;21.70;99.90
13264;DHT22;6700;51.988;7.646;2022-09-13T15:56:13;21.70;99.90
13264;DHT22;6700;51.988;7.646;2022-09-13T15:58:40;21.70;99.90
13264;DHT22;6700;51.988;7.646;2022-09-13T16:01:13;21.70;99.90
13264;DHT22;6700;51.988;7.646;2022-09-13T16:03:41;21.60;99.90
13264;DHT22;6700;51.988;7.646;2022-09-13T16:06:08;21.50;99.90
13264;DHT22;6700;51.988;7.646;2022-09-13T16:08:38;21.50;99.90
13264;DHT22;6700;51.988;7.646;2022-09-13T16:11:06;21.40;99.90
13264;DHT22;6700;51.988;7.646;2022-09-13T16:13:33;21.50;99.90
13264;DHT22;6700;51.988;7.646;2022-09-13T16:16:01;21.40;99.90
13264;DHT22;6700;51.988;7.646;2022-09-13T16:18:28;21.40;99.90
13264;DHT22;6700;51.988;7.646;2022-09-13T16:20:55;21.40;99.90
13264;DHT22;6700;51.988;7.646;2022-09-13T16:23:22;21.40;99.90
13264;DHT22;6700;51.988;7.646;2022-09-13T16:25:53;21.50;99.90
13264;DHT22;6700;51.988;7.646;2022-09-13T16:28:20;21.40;99.90
13264;DHT22;6700;51.988;7.646;2022-09-13T16:30:48;21.40;99.90
13264;DHT22;6700;51.988;7.646;2022-09-13T16:33:15;21.30;99.90
13264;DHT22;6700;51.988;7.646;2022-09-13T16:35:41;21.20;99.90
13264;DHT22;6700;51.988;7.646;2022-09-13T16:38:09;21.10;99.90
13264;DHT22;6700;51.988;7.646;2022-09-13T16:40:43;21.10;99.90
13264;DHT22;6700;51.988;7.646;2022-09-13T16:43:10;21.00;99.90
13264;DHT22;6700;51.988;7.646;2022-09-13T16:45:39;21.00;99.90
13264;DHT22;6700;51.988;7.646;2022-09-13T16:48:07;20.90;99.90
13264;DHT22;6700;51.988;7.646;2022-09-13T16:50:34;20.90;99.90
13264;DHT22;6700;51.988;7.646;2022-09-13T16:53:01;20.90;99.90
13264;DHT22;6700;51.988;7.646;2022-09-13T16:55:29;20.80;99.90
13264;DHT22;6700;51.988;7.646;2022-09-13T16:58:00;20.70;99.90
13264;DHT22;6700;51.988;7.646;2022-09-13T17:00:27;20.60;99.90
13264;DHT22;6700;51.988;7.646;2022-09-13T17:02:55;20.60;99.90
13264;DHT22;6700;51.988;7.646;2022-09-13T17:05:23;20.60;99.90
13264;DHT22;6700;51.988;7.646;2022-09-13T17:07:51;20.40;99.90
13264;DHT22;6700;51.988;7.646;2022-09-13T17:10:19;20.40;99.90
13264;DHT22;6700;51.988;7.646;2022-09-13T17:12:47;20.40;99.90
13264;DHT22;6700;51.988;7.646;2022-09-13T17:15:14;20.20;99.90
13264;DHT22;6700;51.988;7.646;2022-09-13T17:17:41;20.40;99.90
13264;DHT22;6700;51.988;7.646;2022-09-13T17:20:09;20.30;99.90
13264;DHT22;6700;51.988;7.646;2022-09-13T17:22:36;20.20;99.90
13264;DHT22;6700;51.988;7.646;2022-09-13T17:25:04;20.10;99.90
13264;DHT22;6700;51.988;7.646;2022-09-13T17:27:33;20.00;99.90
13264;DHT22;6700;51.988;7.646;2022-09-13T17:30:00;20.10;99.90
13264;DHT22;6700;51.988;7.646;2022-09-13T17:32:30;19.90;99.90
13264;DHT22;6700;51.988;7.646;2022-09-13T17:34:57;20.00;99.90
13264;DHT22;6700;51.988;7.646;2022-09-13T17:37:25;20.00;99.90
13264;DHT22;6700;51.988;7.646;2022-09-13T17:39:52;19.80;99.90
13264;DHT22;6700;51.988;7.646;2022-09-13T17:42:19;19.90;99.90
13264;DHT22;6700;51.988;7.646;2022-09-13T17:44:50;19.90;99.90
13264;DHT22;6700;51.988;7.646;2022-09-13T17:47:16;19.60;99.90
13264;DHT22;6700;51.988;7.646;2022-09-13T17:49:43;19.60;99.90
13264;DHT22;6700;51.988;7.646;2022-09-13T17:52:13;19.70;99.90
13264;DHT22;6700;51.988;7.646;2022-09-13T17:54:40;19.70;99.90
13264;DHT22;6700;51.988;7.646;2022-09-13T17:57:07;19.60;99.90
13264;DHT22;6700;51.988;7.646;2022-09-13T17:59:37;19.60;99.90
13264;DHT22;6700;51.988;7.646;2022-09-13T18:02:04;19.40;99.90
13264;DHT22;6700;51.988;7.646;2022-09-13T18:04:31;19.40;99.90
13264;DHT22;6700;51.988;7.646;2022-09-13T18:06:57;19.40;99.90
13264;DHT22;6700;51.988;7.646;2022-09-13T18:09:25;19.20;99.90
13264;DHT22;6700;51.988;7.646;2022-09-13T18:11:52;19.10;99.90
13264;DHT22;6700;51.988;7.646;2022-09-13T18:14:19;19.10;99.90
13264;DHT22;6700;51.988;7.646;2022-09-13T18:16:46;19.10;99.90
13264;DHT22;6700;51.988;7.646;2022-09-13T18:19:17;19.10;99.90
13264;DHT22;6700;51.988;7.646;2022-09-13T18:22:04;19.00;99.90
13264;DHT22;6700;51.988;7.646;2022-09-13T18:24:30;19.10;99.90
13264;DHT22;6700;51.988;7.646;2022-09-13T18:26:59;19.00;99.90
13264;DHT22;6700;51.988;7.646;2022-09-13T18:29:26;18.90;99.90
13264;DHT22;6700;51.988;7.646;2022-09-13T18:31:54;18.90;99.90
13264;DHT22;6700;51.988;7.646;2022-09-13T18:34:21;18.80;99.90
13264;DHT22;6700;51.988;7.646;2022-09-13T18:36:53;18.80;99.90
13264;DHT22;6700;51.988;7.646;2022-09-13T18:39:21;18.70;99.90
13264;DHT22;6700;51.988;7.646;2022-09-13T18:41:48;18.80;99.90
13264;DHT22;6700;51.988;7.646;2022-09-13T18:44:16;18.70;99.90
13264;DHT22;6700;51.988;7.646;2022-09-13T18:46:43;18.60;99.90
13264;DHT22;6700;51.988;7.646;2022-09-13T18:49:12;18.70;99.90
13264;DHT22;6700;51.988;7.646;2022-09-13T18:51:43;18.50;99.90
13264;DHT22;6700;51.988;7.646;2022-09-13T18:54:15;18.60;99.90
13264;DHT22;6700;51.988;7.646;2022-09-13T18:56:44;18.50;99.90
13264;DHT22;6700;51.988;7.646;2022-09-13T18:59:11;18.50;99.90
13264;DHT22;6700;51.988;7.646;2022-09-13T19:01:40;18.30;99.90
13264;DHT22;6700;51.988;7.646;2022-09-13T19:04:16;18.40;99.90
13264;DHT22;6700;51.988;7.646;2022-09-13T19:06:45;18.20;99.90
13264;DHT22;6700;51.988;7.646;2022-09-13T19:09:14;18.20;99.90
13264;DHT22;6700;51.988;7.646;2022-09-13T19:11:43;18.20;99.90
13264;DHT22;6700;51.988;7.646;2022-09-13T19:14:17;18.10;99.90